Time;durP1;ratioP1;P1;durP2;ratioP2;P2;SDS_P1;SDS_P2;PMS_P1;PMS_P2;Temp;Humidity;BMP_temperature;BMP_pressure;BME280_temperature;BME280_humidity;BME280_pressure;Samples;Min_cycle;Max_cycle;Signal;HPM_P1;HPM_P2
2022/01/24 07:52:36;;;;;;;22.23;10.97;;;-3.50;99.90;;;;;;5073830;28;20540;-78
2022/01/24 07:55:02;;;;;;;24.37;12.17;;;-3.50;99.90;;;;;;5073234;28;20407;-78
2022/01/24 07:57:28;;;;;;;22.87;11.43;;;;;;;;;;5074184;28;20427;-78
2022/01/24 07:59:54;;;;;;;24.10;12.37;;;-3.30;99.90;;;;;;5073272;28;20433;-78
2022/01/24 08:02:20;;;;;;;26.20;11.57;;;-3.10;99.90;;;;;;5072474;28;20213;-78
2022/01/24 08:04:46;;;;;;;31.07;12.63;;;-3.10;99.90;;;;;;5072683;28;20272;-78
2022/01/24 08:07:11;;;;;;;50.97;20.47;;;-3.00;99.90;;;;;;5074141;28;20227;-78
2022/01/24 08:09:37;;;;;;;36.23;16.07;;;-3.10;99.90;;;;;;5074126;28;20212;-78
2022/01/24 08:12:03;;;;;;;39.17;15.87;;;-3.20;99.90;;;;;;5072561;28;20207;-78
2022/01/24 08:14:28;;;;;;;67.17;25.73;;;-3.10;99.90;;;;;;5074389;28;20178;-78
2022/01/24 08:16:54;;;;;;;45.47;18.00;;;-3.10;99.90;;;;;;5072302;28;20453;-78
2022/01/24 08:19:20;;;;;;;34.13;15.00;;;-3.10;99.90;;;;;;5072322;28;20181;-78
2022/01/24 08:21:45;;;;;;;52.10;21.83;;;-3.10;99.90;;;;;;5074376;28;20201;-78
2022/01/24 08:24:12;;;;;;;51.70;20.53;;;-3.20;99.90;;;;;;5074247;28;20168;-78
2022/01/24 08:26:38;;;;;;;29.90;12.20;;;-3.10;99.90;;;;;;5073003;28;20200;-78
2022/01/24 08:29:05;;;;;;;69.37;29.00;;;-3.20;99.90;;;;;;5071831;28;20419;-78
2022/01/24 08:31:31;;;;;;;30.33;15.40;;;-3.00;99.90;;;;;;5072562;28;20180;-78
2022/01/24 08:33:57;;;;;;;19.73;9.77;;;-3.00;99.90;;;;;;5073353;28;20415;-78
2022/01/24 08:36:23;;;;;;;21.33;10.90;;;-2.90;99.90;;;;;;5073103;28;20234;-78
2022/01/24 08:38:50;;;;;;;19.67;11.67;;;-2.70;99.90;;;;;;5072627;28;20650;-78
2022/01/24 08:41:25;;;;;;;35.07;19.00;;;-2.60;99.90;;;;;;5072382;28;20461;-79
2022/01/24 08:43:58;;;;;;;38.73;23.73;;;-2.50;99.90;;;;;;5071371;28;20511;-78
2022/01/24 08:46:24;;;;;;;29.77;14.77;;;-2.40;99.90;;;;;;5072599;28;20435;-78
2022/01/24 08:48:50;;;;;;;25.30;14.60;;;-2.30;99.90;;;;;;5070714;28;20510;-78
2022/01/24 08:51:17;;;;;;;23.03;12.27;;;-2.20;99.90;;;;;;5071235;28;20205;-78
2022/01/24 08:53:42;;;;;;;21.97;11.63;;;-2.20;99.90;;;;;;5071302;28;20182;-78
2022/01/24 08:56:10;;;;;;;25.10;15.20;;;-2.20;99.90;;;;;;5070918;28;20485;-79
2022/01/24 08:58:36;;;;;;;20.90;10.27;;;-2.10;99.90;;;;;;5072830;28;20177;-78
2022/01/24 09:01:02;;;;;;;15.53;9.67;;;-2.10;99.90;;;;;;5070717;28;20545;-78
2022/01/24 09:03:32;;;;;;;19.33;9.47;;;-2.20;99.90;;;;;;5061655;28;20276;-79
2022/01/24 09:05:59;;;;;;;20.43;10.10;;;-1.80;99.90;;;;;;5056716;28;20423;-78
2022/01/24 09:08:25;;;;;;;17.30;9.60;;;-2.00;99.90;;;;;;5058487;28;20416;-78
2022/01/24 09:10:52;;;;;;;18.17;9.47;;;-1.90;99.90;;;;;;5058342;28;20902;-78
2022/01/24 09:13:21;;;;;;;14.17;8.93;;;-1.90;99.90;;;;;;5056442;28;20184;-78
2022/01/24 09:15:47;;;;;;;14.83;8.87;;;-1.80;99.90;;;;;;5065971;28;20495;-79
2022/01/24 09:18:13;;;;;;;17.33;10.00;;;-1.70;99.90;;;;;;5058566;28;20467;-79
2022/01/24 09:20:39;;;;;;;17.60;9.10;;;-1.70;99.90;;;;;;5058233;28;20686;-79
2022/01/24 09:23:09;;;;;;;22.50;8.90;;;-1.70;99.90;;;;;;5058485;28;20223;-79
2022/01/24 09:25:36;;;;;;;14.63;9.23;;;-1.60;99.90;;;;;;5059765;28;20153;-79
2022/01/24 09:28:03;;;;;;;19.83;10.63;;;-1.50;99.90;;;;;;5058235;28;20427;-79
2022/01/24 09:30:29;;;;;;;21.43;10.07;;;-1.40;99.90;;;;;;5059992;28;20408;-79
2022/01/24 09:32:56;;;;;;;16.50;9.93;;;-1.30;99.90;;;;;;5059866;28;20470;-79
2022/01/24 09:35:22;;;;;;;19.07;11.07;;;-1.20;99.90;;;;;;5059931;28;20408;-79
2022/01/24 09:37:48;;;;;;;15.70;9.13;;;-1.10;99.90;;;;;;5058734;28;20439;-79
2022/01/24 09:40:16;;;;;;;15.00;9.03;;;-1.10;99.90;;;;;;5059380;28;20225;-80
2022/01/24 09:42:43;;;;;;;12.33;8.33;;;-1.10;99.90;;;;;;5060005;28;20404;-79
2022/01/24 09:45:10;;;;;;;11.33;7.10;;;-1.00;99.90;;;;;;5057584;28;20423;-78
2022/01/24 09:47:36;;;;;;;12.87;7.13;;;-0.90;99.90;;;;;;5058011;28;20440;-79
2022/01/24 09:50:05;;;;;;;13.00;8.20;;;-0.90;99.90;;;;;;5059015;28;20427;-79
2022/01/24 09:52:31;;;;;;;12.60;7.13;;;-0.90;99.90;;;;;;5057089;28;20851;-79
2022/01/24 09:54:56;;;;;;;12.70;7.60;;;-0.90;99.90;;;;;;5057197;28;20792;-79
2022/01/24 09:57:22;;;;;;;12.70;7.67;;;-0.90;99.90;;;;;;5057323;28;20269;-79
2022/01/24 09:59:51;;;;;;;14.23;8.77;;;-1.00;99.90;;;;;;5058853;28;20308;-79
2022/01/24 10:02:16;;;;;;;14.30;8.67;;;-0.80;99.90;;;;;;5057820;28;20549;-79
2022/01/24 10:04:42;;;;;;;13.77;7.47;;;-0.70;99.90;;;;;;5057042;28;20424;-79
2022/01/24 10:07:11;;;;;;;14.63;9.10;;;-0.70;99.90;;;;;;5057844;28;20221;-79
2022/01/24 10:09:40;;;;;;;12.27;8.10;;;-0.70;99.90;;;;;;5059308;28;20180;-79
2022/01/24 10:17:41;;;;;;;12.70;8.37;;;-0.80;99.90;;;;;;5059699;28;20438;-79
2022/01/24 10:20:21;;;;;;;16.57;10.07;;;-0.80;99.90;;;;;;5059565;28;20419;-80
2022/01/24 10:23:15;;;;;;;12.50;8.43;;;-0.70;99.90;;;;;;5058882;28;20443;-80
2022/01/24 10:26:04;;;;;;;18.87;9.20;;;-0.70;99.90;;;;;;5057682;28;20412;-79
2022/01/24 10:28:34;;;;;;;16.93;9.93;;;-0.60;99.90;;;;;;5058343;28;20420;-80
2022/01/24 10:31:11;;;;;;;17.50;10.23;;;-0.70;99.90;;;;;;5059758;28;20408;-79
2022/01/24 10:34:06;;;;;;;17.20;10.53;;;-0.50;99.90;;;;;;5058431;28;20423;-80
2022/01/24 10:36:54;;;;;;;18.23;10.00;;;-0.50;99.90;;;;;;5056403;28;20464;-80
2022/01/24 10:39:32;;;;;;;18.07;11.20;;;-0.50;99.90;;;;;;5058118;28;20419;-80
2022/01/24 10:45:12;;;;;;;17.97;10.47;;;-0.30;99.90;;;;;;5057766;28;20392;-80
2022/01/24 10:47:47;;;;;;;16.63;10.83;;;-0.30;99.90;;;;;;5057506;28;20427;-80
2022/01/24 10:50:28;;;;;;;20.20;10.97;;;-0.30;99.90;;;;;;5056502;28;20507;-80
2022/01/24 10:52:55;;;;;;;17.93;11.13;;;-0.20;99.90;;;;;;5056212;28;20944;-79
2022/01/24 10:55:28;;;;;;;18.67;11.97;;;-0.20;99.90;;;;;;5056565;28;20430;-79
2022/01/24 10:58:06;;;;;;;20.83;11.47;;;-0.20;99.90;;;;;;5055896;28;20953;-80
2022/01/24 11:00:31;;;;;;;15.50;11.10;;;-0.30;99.90;;;;;;5055695;28;20420;-80
2022/01/24 11:02:59;;;;;;;17.70;10.87;;;-0.30;99.90;;;;;;5057553;28;20443;-80
2022/01/24 11:05:34;;;;;;;18.50;11.73;;;-0.30;99.90;;;;;;5055938;28;20539;-79
2022/01/24 11:08:10;;;;;;;18.93;11.47;;;-0.30;99.90;;;;;;5056218;28;20445;-80
2022/01/24 11:10:44;;;;;;;20.27;11.67;;;-0.30;99.90;;;;;;5060066;28;20396;-78
2022/01/24 11:13:11;;;;;;;18.23;12.20;;;-0.40;99.90;;;;;;5057902;28;20423;-79
2022/01/24 11:15:41;;;;;;;19.00;12.13;;;-0.30;99.90;;;;;;5053523;28;20432;-79
2022/01/24 11:18:06;;;;;;;19.50;11.73;;;-0.30;99.90;;;;;;5054717;28;20810;-79
2022/01/24 11:20:35;;;;;;;20.67;13.43;;;-0.20;99.90;;;;;;5054762;28;20431;-79
2022/01/24 11:23:06;;;;;;;20.73;12.77;;;-0.10;99.90;;;;;;5062399;28;20173;-79
2022/01/24 11:25:42;;;;;;;17.93;11.97;;;-0.10;99.90;;;;;;5055753;28;20501;-79
2022/01/24 11:28:08;;;;;;;23.23;12.40;;;-0.10;99.90;;;;;;5055365;28;20432;-79
2022/01/24 11:30:38;;;;;;;18.50;11.97;;;0.10;99.90;;;;;;5055399;28;20412;-79
2022/01/24 11:33:19;;;;;;;21.50;13.00;;;-0.10;99.90;;;;;;5054359;28;20427;-79
2022/01/24 11:35:54;;;;;;;23.33;13.07;;;0.10;99.90;;;;;;5056370;28;20754;-80
2022/01/24 11:38:57;;;;;;;17.73;11.90;;;0.10;99.90;;;;;;5055605;28;20416;-80
2022/01/24 11:41:26;;;;;;;23.07;11.90;;;-0.10;99.90;;;;;;5055600;28;20551;-79
2022/01/24 11:43:56;;;;;;;18.27;11.63;;;0.00;99.90;;;;;;5054879;28;20420;-81
2022/01/24 11:46:52;;;;;;;19.43;11.90;;;-0.10;99.90;;;;;;5054703;28;20436;-79
2022/01/24 11:49:25;;;;;;;18.43;12.07;;;0.00;99.90;;;;;;5056667;28;20780;-79
2022/01/24 11:52:15;;;;;;;19.57;12.77;;;0.00;99.90;;;;;;5054826;28;20439;-79
2022/01/24 11:54:56;;;;;;;19.17;12.70;;;0.10;99.90;;;;;;5055846;28;20427;-79
2022/01/24 11:57:24;;;;;;;18.90;11.83;;;0.20;99.90;;;;;;5054805;28;20435;-80
2022/01/24 12:00:11;;;;;;;21.00;12.20;;;0.20;99.90;;;;;;5054073;28;20420;-79
2022/01/24 12:02:41;;;;;;;18.33;11.77;;;0.20;99.90;;;;;;5042104;28;20478;-79
2022/01/24 12:05:24;;;;;;;17.27;11.10;;;0.20;99.90;;;;;;5054874;28;20415;-79
2022/01/24 12:08:01;;;;;;;19.87;11.73;;;0.20;99.90;;;;;;5055870;28;20475;-79
2022/01/24 12:10:33;;;;;;;17.03;10.70;;;0.10;99.90;;;;;;5055875;28;20404;-79
2022/01/24 12:13:02;;;;;;;16.63;11.27;;;0.10;99.90;;;;;;5054630;28;20516;-79
2022/01/24 12:15:36;;;;;;;15.63;10.57;;;0.20;99.90;;;;;;5054692;28;20458;-80
2022/01/24 12:18:12;;;;;;;15.67;10.97;;;0.30;99.90;;;;;;5054364;28;20539;-79
2022/01/24 12:20:40;;;;;;;17.27;11.47;;;0.20;99.90;;;;;;5055280;28;20727;-79
2022/01/24 12:23:24;;;;;;;15.77;10.80;;;0.20;99.90;;;;;;5054502;28;20175;-80
2022/01/24 12:25:57;;;;;;;18.80;11.07;;;0.10;99.90;;;;;;5056214;28;20571;-80
2022/01/24 12:28:29;;;;;;;16.53;10.33;;;0.10;99.90;;;;;;5055850;28;20179;-79
2022/01/24 12:31:02;;;;;;;16.03;10.70;;;0.20;99.90;;;;;;5057591;28;20699;-79
2022/01/24 12:33:40;;;;;;;18.37;10.83;;;0.30;99.90;;;;;;5056445;28;20511;-80
2022/01/24 12:36:08;;;;;;;17.27;11.77;;;0.40;99.90;;;;;;5053967;28;20671;-80
2022/01/24 12:38:45;;;;;;;19.53;11.13;;;0.50;99.90;;;;;;5057799;28;20221;-80
2022/01/24 12:41:27;;;;;;;18.90;10.23;;;0.40;99.90;;;;;;5057231;28;20278;-80
2022/01/24 12:46:29;;;;;;;15.53;10.73;;;0.40;99.90;;;;;;5058965;28;20205;-80
2022/01/24 12:48:57;;;;;;;16.13;10.70;;;0.40;99.90;;;;;;5058534;28;20173;-80
2022/01/24 12:51:24;;;;;;;17.33;10.83;;;0.40;99.90;;;;;;5058670;28;20193;-80
2022/01/24 12:53:51;;;;;;;17.63;10.60;;;0.40;99.90;;;;;;5058243;28;20518;-80
2022/01/24 12:56:18;;;;;;;18.30;11.60;;;0.50;99.90;;;;;;5057152;28;20197;-79
2022/01/24 12:58:49;;;;;;;20.33;12.50;;;0.60;99.90;;;;;;5059101;28;20174;-80
2022/01/24 13:01:26;;;;;;;20.83;12.17;;;0.60;99.90;;;;;;5057636;28;20285;-80
2022/01/24 13:03:58;;;;;;;15.77;11.07;;;0.50;99.90;;;;;;5058276;28;20557;-80
2022/01/24 13:06:29;;;;;;;20.47;12.50;;;0.40;99.90;;;;;;5057990;28;20289;-80
2022/01/24 13:09:02;;;;;;;17.07;10.90;;;0.40;99.90;;;;;;5057303;28;20296;-80
2022/01/24 13:11:30;;;;;;;15.60;10.50;;;0.50;99.90;;;;;;5059430;28;20223;-80
2022/01/24 13:14:14;;;;;;;15.23;10.03;;;0.50;99.90;;;;;;5059321;28;20182;-79
2022/01/24 13:25:23;;;;;;;15.07;9.77;;;1.10;99.90;;;;;;5056088;28;20261;-80
2022/01/24 13:27:51;;;;;;;15.07;9.70;;;1.10;99.90;;;;;;5061694;28;20185;-80
2022/01/24 13:30:26;;;;;;;18.60;11.17;;;1.10;99.90;;;;;;5060279;28;20232;-80
2022/01/24 13:32:58;;;;;;;15.47;10.57;;;1.20;99.90;;;;;;5058439;28;20162;-80
2022/01/24 13:35:27;;;;;;;15.87;11.10;;;1.30;99.90;;;;;;5057341;28;20174;-80
2022/01/24 13:38:01;;;;;;;16.23;10.23;;;1.60;99.90;;;;;;5056739;28;20204;-80
2022/01/24 13:40:37;;;;;;;15.83;10.47;;;1.60;99.90;;;;;;5057052;28;20167;-80
2022/01/24 13:43:04;;;;;;;16.80;10.10;;;1.70;99.90;;;;;;5057667;28;20165;-80
2022/01/24 13:45:34;;;;;;;15.63;10.53;;;1.70;99.90;;;;;;5058490;28;20243;-80
2022/01/24 13:48:03;;;;;;;15.03;10.23;;;1.80;99.90;;;;;;5057008;28;20274;-79
2022/01/24 13:50:29;;;;;;;17.20;11.13;;;1.90;99.90;;;;;;5057293;28;20208;-80
2022/01/24 13:52:54;;;;;;;18.97;11.37;;;1.90;99.90;;;;;;5058128;28;20179;-79
2022/01/24 13:55:25;;;;;;;14.90;10.93;;;2.00;99.90;;;;;;5056398;28;20178;-80
2022/01/24 13:57:53;;;;;;;16.33;10.83;;;1.80;99.90;;;;;;5057890;28;20558;-80
2022/01/24 14:00:28;;;;;;;17.03;10.50;;;1.60;99.90;;;;;;5056680;28;20181;-79
2022/01/24 14:03:10;;;;;;;14.10;10.13;;;1.60;99.90;;;;;;5056479;28;20182;-80
2022/01/24 14:05:36;;;;;;;13.20;9.83;;;1.70;99.90;;;;;;5056868;28;20163;-80
2022/01/24 14:08:16;;;;;;;13.87;8.80;;;1.70;99.90;;;;;;5057216;28;20528;-80
2022/01/24 14:10:43;;;;;;;13.63;9.40;;;1.80;99.90;;;;;;5057103;28;20573;-80
2022/01/24 14:13:09;;;;;;;16.73;10.37;;;1.80;99.90;;;;;;5058338;28;20233;-80
2022/01/24 14:16:01;;;;;;;26.90;15.33;;;1.70;99.90;;;;;;5057707;28;20703;-80
2022/01/24 14:18:31;;;;;;;21.83;12.73;;;1.70;99.90;;;;;;5063673;28;20155;-79
2022/01/24 14:21:09;;;;;;;21.53;12.33;;;1.40;99.90;;;;;;5067880;28;20295;-79
2022/01/24 14:23:37;;;;;;;14.37;9.60;;;1.30;99.90;;;;;;5068137;28;20182;-79
2022/01/24 14:26:16;;;;;;;16.07;10.17;;;1.10;99.90;;;;;;5057812;28;20581;-80
2022/01/24 14:28:43;;;;;;;13.20;9.27;;;1.10;99.90;;;;;;5056515;28;20207;-80
2022/01/24 14:31:14;;;;;;;17.37;10.70;;;1.20;99.90;;;;;;5056199;28;20185;-80
2022/01/24 14:33:42;;;;;;;17.20;11.57;;;1.10;99.90;;;;;;5056124;28;20249;-79
2022/01/24 14:36:16;;;;;;;16.07;9.93;;;1.00;99.90;;;;;;5056912;28;20173;-80
2022/01/24 14:38:46;;;;;;;17.13;10.83;;;1.10;99.90;;;;;;5056129;28;20658;-80
2022/01/24 14:41:31;;;;;;;17.27;10.83;;;1.10;99.90;;;;;;5056297;28;20195;-80
2022/01/24 14:46:44;;;;;;;16.17;10.60;;;1.30;99.90;;;;;;5058170;28;20254;-80
2022/01/24 14:49:17;;;;;;;16.47;10.90;;;1.30;99.90;;;;;;5057620;28;20183;-80
2022/01/24 14:51:45;;;;;;;16.00;10.53;;;1.30;99.90;;;;;;5057027;28;20189;-80
2022/01/24 14:54:17;;;;;;;20.23;10.63;;;1.30;99.90;;;;;;5056173;28;20228;-80
2022/01/24 14:56:46;;;;;;;14.43;10.27;;;1.20;99.90;;;;;;5056490;28;20297;-80
2022/01/24 14:59:11;;;;;;;17.17;10.47;;;1.20;99.90;;;;;;5058076;28;20198;-80
2022/01/24 15:01:38;;;;;;;15.93;10.93;;;1.00;99.90;;;;;;5055890;28;20694;-80
2022/01/24 15:04:04;;;;;;;19.87;11.33;;;1.20;99.90;;;;;;5056211;28;20173;-80
2022/01/24 15:06:30;;;;;;;16.83;10.73;;;1.20;99.90;;;;;;5055422;28;20255;-80
2022/01/24 15:08:59;;;;;;;15.70;10.70;;;2.00;99.90;;;;;;5057396;28;20180;-79
2022/01/24 15:11:30;;;;;;;18.47;11.13;;;2.00;99.90;;;;;;5055942;28;20565;-80
2022/01/24 15:14:10;;;;;;;15.87;10.00;;;2.00;99.90;;;;;;5058510;28;20197;-79
2022/01/24 15:27:01;;;;;;;17.03;9.23;;;0.90;99.90;;;;;;5058136;28;20205;-79
2022/01/24 15:29:28;;;;;;;16.33;11.63;;;0.90;99.90;;;;;;5056778;28;20182;-80
2022/01/24 15:31:57;;;;;;;16.73;10.57;;;0.90;99.90;;;;;;5058224;28;20178;-79
2022/01/24 15:34:23;;;;;;;18.40;10.60;;;0.90;99.90;;;;;;5056481;28;20185;-79
2022/01/24 15:36:49;;;;;;;14.40;10.23;;;0.80;99.90;;;;;;5053406;28;20575;-79
2022/01/24 15:39:16;;;;;;;16.23;10.57;;;0.80;99.90;;;;;;5060406;28;20182;-80
2022/01/24 15:41:53;;;;;;;17.97;10.73;;;1.40;99.90;;;;;;5056686;28;20205;-79
2022/01/24 15:44:34;;;;;;;18.20;10.30;;;0.80;99.90;;;;;;5056513;28;20185;-79
2022/01/24 15:49:38;;;;;;;18.73;11.37;;;0.60;99.90;;;;;;5057121;28;20631;-79
2022/01/24 15:52:04;;;;;;;18.47;11.93;;;0.60;99.90;;;;;;5056047;28;20197;-79
